Time;durP1;ratioP1;P1;durP2;ratioP2;P2;SDS_P1;SDS_P2;PMS_P1;PMS_P2;Temp;Humidity;BMP_temperature;BMP_pressure;BME280_temperature;BME280_humidity;BME280_pressure;Samples;Min_cycle;Max_cycle;Signal;HPM_P1;HPM_P2
2022/01/17 00:01:38;;;;;;;;;;;3.40;99.90;;;;;;6213625;23;19910;-74
2022/01/17 00:04:04;;;;;;;;;;;3.40;99.90;;;;;;6213311;23;19931;-74
2022/01/17 00:06:29;;;;;;;;;;;3.40;99.90;;;;;;6214169;23;20276;-73
2022/01/17 00:08:55;;;;;;;;;;;3.40;99.90;;;;;;6214816;23;19903;-74
2022/01/17 00:11:20;;;;;;;;;;;3.40;99.90;;;;;;6212449;23;19907;-75
2022/01/17 00:13:47;;;;;;;;;;;3.40;99.90;;;;;;6211799;23;19904;-75
2022/01/17 00:16:18;;;;;;;;;;;3.30;99.90;;;;;;6215237;23;19907;-74
2022/01/17 00:21:13;;;;;;;;;;;3.20;99.90;;;;;;6222258;23;19906;-75
2022/01/17 00:23:39;;;;;;;;;;;3.10;99.90;;;;;;6221863;23;19900;-74
2022/01/17 00:26:04;;;;;;;;;;;3.10;99.90;;;;;;6220642;23;19904;-75
2022/01/17 00:28:30;;;;;;;;;;;3.10;99.90;;;;;;6219913;23;19982;-73
2022/01/17 00:30:56;;;;;;;;;;;3.00;99.90;;;;;;6218676;23;19927;-75
2022/01/17 00:33:22;;;;;;;;;;;3.00;99.90;;;;;;6216312;23;19903;-74
2022/01/17 00:35:47;;;;;;;;;;;3.00;99.90;;;;;;6216109;23;19950;-74
2022/01/17 00:38:14;;;;;;;;;;;2.90;99.90;;;;;;6216099;23;20306;-74
2022/01/17 00:40:41;;;;;;;;;;;2.80;99.90;;;;;;6215137;23;20312;-74
2022/01/17 00:43:06;;;;;;;;;;;2.80;99.90;;;;;;6216138;23;19907;-74
2022/01/17 00:45:32;;;;;;;;;;;2.70;99.90;;;;;;6217526;23;19900;-74
2022/01/17 00:48:00;;;;;;;;;;;2.70;99.90;;;;;;6216853;23;19944;-74
2022/01/17 00:50:27;;;;;;;;;;;2.60;99.90;;;;;;6217982;23;20232;-74
2022/01/17 00:52:52;;;;;;;;;;;2.60;99.90;;;;;;6217937;23;20312;-73
2022/01/17 00:55:18;;;;;;;;;;;2.60;99.90;;;;;;6218044;23;19938;-74
2022/01/17 00:57:44;;;;;;;;;;;2.60;99.90;;;;;;6214544;23;19904;-74
2022/01/17 01:00:11;;;;;;;;;;;2.60;99.90;;;;;;6215006;23;20324;-75
2022/01/17 01:02:36;;;;;;;;;;;2.60;99.90;;;;;;6217120;23;19900;-74
2022/01/17 01:05:03;;;;;;;;;;;2.50;99.90;;;;;;6219737;23;20300;-75
2022/01/17 01:07:29;;;;;;;;;;;2.40;99.90;;;;;;6226615;23;19899;-73
2022/01/17 01:10:15;;;;;;;;;;;2.40;99.90;;;;;;6227428;23;19907;-74
2022/01/17 01:12:41;;;;;;;;;;;2.30;99.90;;;;;;6226506;23;19950;-73
2022/01/17 01:15:12;;;;;;;;;;;2.30;99.90;;;;;;6222558;23;19899;-74
2022/01/17 01:17:55;;;;;;;;;;;2.20;99.90;;;;;;6219555;23;19899;-74
2022/01/17 01:28:38;;;;;;;;;;;2.20;99.90;;;;;;6216387;23;19997;-73
2022/01/17 01:31:10;;;;;;;;;;;2.10;99.90;;;;;;6216088;23;19903;-73
2022/01/17 01:33:40;;;;;;;;;;;2.10;99.90;;;;;;6216128;23;19911;-75
2022/01/17 01:36:12;;;;;;;;;;;1.90;99.90;;;;;;6216461;23;19938;-73
2022/01/17 01:38:40;;;;;;;;;;;1.90;99.90;;;;;;6216603;23;19903;-74
2022/01/17 01:41:06;;;;;;;;;;;2.00;99.90;;;;;;6215051;23;19947;-74
2022/01/17 01:43:31;;;;;;;;;;;2.00;99.90;;;;;;6215996;23;19911;-74
2022/01/17 01:46:00;;;;;;;;;;;1.90;99.90;;;;;;6215562;23;19900;-74
2022/01/17 01:48:30;;;;;;;;;;;1.90;99.90;;;;;;6215984;23;19904;-74
2022/01/17 01:50:56;;;;;;;;;;;1.80;99.90;;;;;;6216378;23;19903;-74
2022/01/17 01:53:25;;;;;;;;;;;1.70;99.90;;;;;;6215243;23;19966;-74
2022/01/17 01:55:51;;;;;;;;;;;1.70;99.90;;;;;;6215146;23;19900;-74
2022/01/17 01:58:19;;;;;;;;;;;1.80;99.90;;;;;;6215492;23;19911;-74
2022/01/17 02:00:45;;;;;;;;;;;1.80;99.90;;;;;;6216891;23;19907;-74
2022/01/17 02:03:10;;;;;;;;;;;1.80;99.90;;;;;;6218658;23;20336;-74
2022/01/17 02:05:36;;;;;;;;;;;2.00;99.90;;;;;;6216873;23;20347;-73
2022/01/17 02:08:02;;;;;;;;;;;2.00;99.90;;;;;;6215889;23;19904;-74
2022/01/17 02:10:27;;;;;;;;;;;1.90;99.90;;;;;;6214849;23;19990;-74
2022/01/17 02:12:53;;;;;;;;;;;1.90;99.90;;;;;;6214067;23;19995;-75
2022/01/17 02:15:18;;;;;;;;;;;1.80;99.90;;;;;;6216210;23;19923;-74
2022/01/17 02:17:52;;;;;;;;;;;1.80;99.90;;;;;;6212320;23;19982;-74
2022/01/17 02:20:21;;;;;;;;;;;1.60;99.90;;;;;;6215184;23;19934;-73
2022/01/17 02:22:47;;;;;;;;;;;1.60;99.90;;;;;;6216308;23;19900;-73
2022/01/17 02:25:12;;;;;;;;;;;1.60;99.90;;;;;;6216036;23;19935;-73
2022/01/17 02:27:38;;;;;;;;;;;1.50;99.90;;;;;;6216268;23;20391;-73
2022/01/17 02:30:04;;;;;;;;;;;1.50;99.90;;;;;;6216774;23;19926;-73
2022/01/17 02:32:30;;;;;;;;;;;1.50;99.90;;;;;;6216661;23;19910;-74
2022/01/17 02:35:11;;;;;;;;;;;1.50;99.90;;;;;;6216133;23;19903;-73
2022/01/17 02:37:36;;;;;;;;;;;1.40;99.90;;;;;;6216892;23;20242;-74
2022/01/17 02:40:02;;;;;;;;;;;1.50;99.90;;;;;;6220973;23;19911;-77
2022/01/17 02:42:28;;;;;;;;;;;1.40;99.90;;;;;;6220787;23;19906;-74
2022/01/17 02:44:59;;;;;;;;;;;1.40;99.90;;;;;;6220789;23;19927;-74
2022/01/17 02:47:25;;;;;;;;;;;1.30;99.90;;;;;;6219588;23;19946;-74
2022/01/17 02:49:50;;;;;;;;;;;1.30;99.90;;;;;;6219448;23;19954;-74
2022/01/17 02:52:19;;;;;;;;;;;1.30;99.90;;;;;;6223334;23;19911;-75
2022/01/17 02:54:44;;;;;;;;;;;1.30;99.90;;;;;;6220363;23;19900;-75
2022/01/17 02:57:10;;;;;;;;;;;1.40;99.90;;;;;;6223096;23;19939;-75
2022/01/17 02:59:36;;;;;;;;;;;1.30;99.90;;;;;;6223589;23;19900;-75
2022/01/17 03:02:03;;;;;;;;;;;1.30;99.90;;;;;;6225467;23;19900;-74
2022/01/17 03:04:29;;;;;;;;;;;1.30;99.90;;;;;;6224993;23;19900;-74
2022/01/17 03:06:55;;;;;;;;;;;1.30;99.90;;;;;;6220313;23;19954;-73
2022/01/17 03:09:22;;;;;;;;;;;1.30;99.90;;;;;;6216830;23;19900;-73
2022/01/17 03:11:48;;;;;;;;;;;1.30;99.90;;;;;;6215427;23;19904;-73
2022/01/17 03:14:13;;;;;;;;;;;1.20;99.90;;;;;;6215341;23;19911;-73
2022/01/17 03:16:46;;;;;;;;;;;1.20;99.90;;;;;;6215248;23;19900;-74
2022/01/17 03:19:11;;;;;;;;;;;1.30;99.90;;;;;;6216020;23;19903;-74
2022/01/17 03:21:37;;;;;;;;;;;1.20;99.90;;;;;;6214757;23;19931;-74
2022/01/17 03:24:03;;;;;;;;;;;1.20;99.90;;;;;;6215920;23;19900;-74
2022/01/17 03:26:30;;;;;;;;;;;1.30;99.90;;;;;;6214413;23;20365;-74
2022/01/17 03:28:57;;;;;;;;;;;1.30;99.90;;;;;;6215171;23;19903;-74
2022/01/17 03:31:23;;;;;;;;;;;1.50;99.90;;;;;;6216330;23;19986;-75
2022/01/17 03:33:48;;;;;;;;;;;1.70;99.90;;;;;;6216114;23;19907;-74
2022/01/17 03:36:14;;;;;;;;;;;1.80;99.90;;;;;;6215471;23;19904;-74
2022/01/17 03:38:41;;;;;;;;;;;1.80;99.90;;;;;;6215463;23;19899;-73
2022/01/17 03:41:07;;;;;;;;;;;1.90;99.90;;;;;;6214414;23;20363;-73
2022/01/17 03:43:33;;;;;;;;;;;2.10;99.90;;;;;;6215307;23;19900;-74
2022/01/17 03:45:59;;;;;;;;;;;2.00;99.90;;;;;;6215223;23;19946;-74
2022/01/17 03:48:26;;;;;;;;;;;1.90;99.90;;;;;;6220124;23;19904;-74
2022/01/17 03:50:52;;;;;;;;;;;1.70;99.90;;;;;;6220320;23;19910;-73
2022/01/17 03:53:18;;;;;;;;;;;1.80;99.90;;;;;;6219758;23;19910;-74
2022/01/17 03:55:43;;;;;;;;;;;1.70;99.90;;;;;;6222785;23;19951;-73
2022/01/17 03:58:09;;;;;;;;;;;1.60;99.90;;;;;;6222812;23;19927;-73
2022/01/17 04:00:37;;;;;;;;;;;1.60;99.90;;;;;;6216202;23;19926;-73
2022/01/17 04:03:03;;;;;;;;;;;1.50;99.90;;;;;;6218206;23;19911;-74
2022/01/17 04:05:29;;;;;;;;;;;1.40;99.90;;;;;;6218039;23;19900;-73
2022/01/17 04:07:55;;;;;;;;;;;1.40;99.90;;;;;;6214429;23;19900;-74
2022/01/17 04:10:20;;;;;;;;;;;1.40;99.90;;;;;;6214100;23;19954;-75
2022/01/17 04:12:46;;;;;;;;;;;1.30;99.90;;;;;;6213139;23;19979;-75
2022/01/17 04:15:12;;;;;;;;;;;1.20;99.90;;;;;;6213504;23;19900;-74
2022/01/17 04:17:40;;;;;;;;;;;1.10;99.90;;;;;;6215832;23;20294;-73
2022/01/17 04:20:09;;;;;;;;;;;1.10;99.90;;;;;;6214734;23;20313;-74
2022/01/17 04:22:42;;;;;;;;;;;1.00;99.90;;;;;;6214968;23;19903;-74
2022/01/17 04:25:08;;;;;;;;;;;1.00;99.90;;;;;;6213217;23;20234;-74
2022/01/17 04:27:34;;;;;;;;;;;1.20;99.90;;;;;;6213681;23;19900;-74
2022/01/17 04:30:00;;;;;;;;;;;1.40;99.90;;;;;;6215498;23;19914;-74
2022/01/17 04:32:26;;;;;;;;;;;1.40;99.90;;;;;;6216952;23;19903;-75
2022/01/17 04:34:52;;;;;;;;;;;1.20;99.90;;;;;;6216058;23;20316;-74
2022/01/17 04:37:17;;;;;;;;;;;1.10;99.90;;;;;;6215553;23;19907;-74
2022/01/17 04:39:43;;;;;;;;;;;1.20;99.90;;;;;;6214860;23;19978;-73
2022/01/17 04:42:13;;;;;;;;;;;1.30;99.90;;;;;;6218176;23;19934;-75
2022/01/17 04:47:23;;;;;;;;;;;1.20;99.90;;;;;;6219882;23;19949;-74
2022/01/17 04:49:49;;;;;;;;;;;1.20;99.90;;;;;;6220510;23;19967;-73
2022/01/17 04:52:14;;;;;;;;;;;1.10;99.90;;;;;;6221382;23;19904;-74
2022/01/17 04:54:42;;;;;;;;;;;1.00;99.90;;;;;;6220204;23;19900;-75
2022/01/17 04:57:12;;;;;;;;;;;1.00;99.90;;;;;;6218419;23;20275;-73
2022/01/17 04:59:41;;;;;;;;;;;1.00;99.90;;;;;;6217684;23;19904;-73
2022/01/17 05:02:07;;;;;;;;;;;1.00;99.90;;;;;;6217812;23;19907;-74
2022/01/17 05:04:33;;;;;;;;;;;1.00;99.90;;;;;;6216097;23;20220;-74
2022/01/17 05:06:59;;;;;;;;;;;1.00;99.90;;;;;;6216162;23;19903;-73
2022/01/17 05:09:25;;;;;;;;;;;1.10;99.90;;;;;;6215194;23;19946;-72
2022/01/17 05:11:51;;;;;;;;;;;1.00;99.90;;;;;;6213390;23;20263;-71
2022/01/17 05:14:17;;;;;;;;;;;1.00;99.90;;;;;;6213140;23;20056;-73
2022/01/17 05:16:49;;;;;;;;;;;0.80;99.90;;;;;;6213621;23;19920;-74
2022/01/17 05:21:59;;;;;;;;;;;1.00;99.90;;;;;;6214209;23;19948;-74
2022/01/17 05:24:24;;;;;;;;;;;0.80;99.90;;;;;;6215141;23;19900;-74
2022/01/17 05:26:50;;;;;;;;;;;0.80;99.90;;;;;;6218430;23;19938;-74
2022/01/17 05:29:16;;;;;;;;;;;0.70;99.90;;;;;;6219645;23;19906;-74
2022/01/17 05:31:41;;;;;;;;;;;0.70;99.90;;;;;;6222238;23;19907;-74
2022/01/17 05:34:07;;;;;;;;;;;0.70;99.90;;;;;;6224524;23;19904;-73
2022/01/17 05:36:32;;;;;;;;;;;0.60;99.90;;;;;;6223174;23;20348;-74
2022/01/17 05:38:58;;;;;;;;;;;0.70;99.90;;;;;;6220432;23;20343;-74
2022/01/17 05:41:24;;;;;;;;;;;0.60;99.90;;;;;;6217780;23;20329;-73
2022/01/17 05:43:49;;;;;;;;;;;0.60;99.90;;;;;;6217715;23;19907;-74
2022/01/17 05:46:15;;;;;;;;;;;0.70;99.90;;;;;;6214022;23;19926;-74
2022/01/17 05:48:40;;;;;;;;;;;0.60;99.90;;;;;;6216998;23;19907;-73
2022/01/17 05:51:06;;;;;;;;;;;0.60;99.90;;;;;;6214784;23;19947;-73
2022/01/17 05:53:32;;;;;;;;;;;0.60;99.90;;;;;;6221911;23;19904;-74
2022/01/17 05:55:57;;;;;;;;;;;0.60;99.90;;;;;;6224828;23;19911;-73
2022/01/17 05:58:23;;;;;;;;;;;0.60;99.90;;;;;;6225879;23;20182;-74
2022/01/17 06:00:49;;;;;;;;;;;0.70;99.90;;;;;;6222912;23;19969;-74
2022/01/17 06:03:15;;;;;;;;;;;0.80;99.90;;;;;;6220599;23;19919;-74
2022/01/17 06:05:40;;;;;;;;;;;0.70;99.90;;;;;;6222993;23;19900;-74
2022/01/17 06:08:06;;;;;;;;;;;0.60;99.90;;;;;;6219024;23;19946;-75
2022/01/17 06:10:32;;;;;;;;;;;0.50;99.90;;;;;;6217239;23;19904;-74
2022/01/17 06:12:58;;;;;;;;;;;0.60;99.90;;;;;;6212818;23;19904;-73
2022/01/17 06:15:23;;;;;;;;;;;0.60;99.90;;;;;;6213471;23;19900;-74
2022/01/17 06:17:49;;;;;;;;;;;0.80;99.90;;;;;;6215121;23;19908;-73
2022/01/17 06:20:14;;;;;;;;;;;0.70;99.90;;;;;;6214321;23;19981;-73
2022/01/17 06:22:40;;;;;;;;;;;0.80;99.90;;;;;;6215117;23;19900;-75
2022/01/17 06:25:06;;;;;;;;;;;0.60;99.90;;;;;;6213209;23;20386;-73
2022/01/17 06:27:32;;;;;;;;;;;0.60;99.90;;;;;;6213821;23;19900;-73
2022/01/17 06:29:59;;;;;;;;;;;0.70;99.90;;;;;;6214549;23;19907;-74
2022/01/17 06:32:25;;;;;;;;;;;0.70;99.90;;;;;;6214445;23;19931;-74
2022/01/17 06:34:50;;;;;;;;;;;0.70;99.90;;;;;;6213668;23;20320;-73
2022/01/17 06:37:16;;;;;;;;;;;0.60;99.90;;;;;;6215272;23;19931;-72
2022/01/17 06:39:42;;;;;;;;;;;0.60;99.90;;;;;;6213961;23;20228;-73
2022/01/17 06:42:07;;;;;;;;;;;0.60;99.90;;;;;;6215594;23;19900;-73
2022/01/17 06:44:33;;;;;;;;;;;0.60;99.90;;;;;;6215709;23;19903;-74
2022/01/17 06:46:58;;;;;;;;;;;0.70;99.90;;;;;;6213297;23;19962;-74
2022/01/17 06:49:24;;;;;;;;;;;0.50;99.90;;;;;;6211942;23;20348;-74
2022/01/17 06:51:50;;;;;;;;;;;0.50;99.90;;;;;;6214223;23;19907;-74
2022/01/17 06:54:15;;;;;;;;;;;0.50;99.90;;;;;;6212821;23;19903;-73
2022/01/17 06:56:44;;;;;;;;;;;0.60;99.90;;;;;;6214135;23;19912;-74
2022/01/17 06:59:13;;;;;;;;;;;0.70;99.90;;;;;;6214746;23;19958;-74
2022/01/17 07:01:39;;;;;;;;;;;0.70;99.90;;;;;;6210619;23;20312;-73
2022/01/17 07:04:05;;;;;;;;;;;0.60;99.90;;;;;;6214827;23;19946;-74
2022/01/17 07:06:30;;;;;;;;;;;0.60;99.90;;;;;;6212165;23;20171;-73
2022/01/17 07:08:56;;;;;;;;;;;0.70;99.90;;;;;;6213963;23;20320;-74
2022/01/17 07:11:21;;;;;;;;;;;0.70;99.90;;;;;;6220423;23;20328;-74
2022/01/17 07:13:47;;;;;;;;;;;0.60;99.90;;;;;;6218806;23;19919;-73
2022/01/17 07:16:13;;;;;;;;;;;0.50;99.90;;;;;;6219404;23;19900;-73
2022/01/17 07:18:39;;;;;;;;;;;0.40;99.90;;;;;;6216717;23;19904;-73
2022/01/17 07:21:05;;;;;;;;;;;0.30;99.90;;;;;;6215298;23;19900;-73
2022/01/17 07:23:30;;;;;;;;;;;0.40;99.90;;;;;;6214496;23;19900;-73
2022/01/17 07:25:56;;;;;;;;;;;0.50;99.90;;;;;;6213172;23;19974;-73
2022/01/17 07:28:22;;;;;;;;;;;0.40;99.90;;;;;;6213541;23;19900;-74
2022/01/17 07:30:47;;;;;;;;;;;0.40;99.90;;;;;;6213388;23;20228;-74
2022/01/17 07:33:13;;;;;;;;;;;0.40;99.90;;;;;;6212769;23;19904;-74
2022/01/17 07:35:39;;;;;;;;;;;0.50;99.90;;;;;;6214926;23;19899;-74
2022/01/17 07:38:05;;;;;;;;;;;0.60;99.90;;;;;;6217691;23;19900;-73
2022/01/17 07:40:31;;;;;;;;;;;0.60;99.90;;;;;;6214695;23;19940;-73
2022/01/17 07:42:57;;;;;;;;;;;0.40;99.90;;;;;;6212429;23;20240;-73
2022/01/17 07:45:23;;;;;;;;;;;0.50;99.90;;;;;;6214459;23;19931;-73
2022/01/17 07:50:18;;;;;;;;;;;0.40;99.90;;;;;;6214705;23;20297;-73
2022/01/17 07:52:44;;;;;;;;;;;0.40;99.90;;;;;;6216213;23;19911;-74
2022/01/17 07:55:10;;;;;;;;;;;0.30;99.90;;;;;;6216118;23;19939;-72
2022/01/17 07:57:37;;;;;;;;;;;0.30;99.90;;;;;;6217455;23;19957;-72
2022/01/17 08:00:04;;;;;;;;;;;0.40;99.90;;;;;;6216888;23;19938;-72
2022/01/17 08:02:32;;;;;;;;;;;0.60;99.90;;;;;;6221910;23;19900;-70
2022/01/17 08:05:00;;;;;;;;;;;0.40;99.90;;;;;;6232032;23;19900;-70
2022/01/17 08:07:26;;;;;;;;;;;0.30;99.90;;;;;;6230546;23;19900;-69
2022/01/17 08:09:51;;;;;;;;;;;0.40;99.90;;;;;;6229416;23;19952;-70
2022/01/17 08:12:17;;;;;;;;;;;0.40;99.90;;;;;;6231214;23;19904;-70
2022/01/17 08:14:42;;;;;;;;;;;0.30;99.90;;;;;;6229422;23;20288;-70
2022/01/17 08:17:10;;;;;;;;;;;0.40;99.90;;;;;;6229247;23;19906;-70
2022/01/17 08:19:36;;;;;;;;;;;0.30;99.90;;;;;;6227791;23;19904;-69
2022/01/17 08:22:03;;;;;;;;;;;0.30;99.90;;;;;;6226430;23;20226;-72
2022/01/17 08:24:28;;;;;;;;;;;0.40;99.90;;;;;;6225013;23;20205;-71
2022/01/17 08:26:54;;;;;;;;;;;0.30;99.90;;;;;;6227537;23;19943;-71
2022/01/17 08:29:22;;;;;;;;;;;0.40;99.90;;;;;;6228548;23;19903;-70
2022/01/17 08:31:47;;;;;;;;;;;0.40;99.90;;;;;;6228547;23;19904;-71
2022/01/17 08:34:14;;;;;;;;;;;0.40;99.90;;;;;;6225055;23;19904;-70
2022/01/17 08:36:39;;;;;;;;;;;0.40;99.90;;;;;;6227522;23;19899;-72
2022/01/17 08:39:07;;;;;;;;;;;0.40;99.90;;;;;;6225013;23;19900;-71
2022/01/17 08:41:33;;;;;;;;;;;0.40;99.90;;;;;;6222588;23;19912;-70
2022/01/17 08:43:58;;;;;;;;;;;0.50;99.90;;;;;;6216413;23;20209;-70
2022/01/17 08:46:24;;;;;;;;;;;0.70;99.90;;;;;;6212934;23;19911;-70
2022/01/17 08:48:51;;;;;;;;;;;0.90;99.90;;;;;;6215302;23;19978;-70
2022/01/17 08:51:17;;;;;;;;;;;0.70;99.90;;;;;;6215842;23;19951;-71
2022/01/17 08:53:44;;;;;;;;;;;0.70;99.90;;;;;;6215662;23;19904;-71
2022/01/17 08:56:10;;;;;;;;;;;0.80;99.90;;;;;;6217624;23;19954;-72
2022/01/17 08:58:40;;;;;;;;;;;0.70;99.90;;;;;;6216482;23;19904;-70
2022/01/17 09:01:05;;;;;;;;;;;0.60;99.90;;;;;;6215393;23;19899;-70
2022/01/17 09:03:31;;;;;;;;;;;0.60;99.90;;;;;;6216480;23;19931;-70
2022/01/17 09:05:57;;;;;;;;;;;0.60;99.90;;;;;;6218047;23;20236;-70
2022/01/17 09:08:23;;;;;;;;;;;0.50;99.90;;;;;;6215978;23;19907;-70
2022/01/17 09:10:49;;;;;;;;;;;0.50;99.90;;;;;;6218565;23;19911;-70
2022/01/17 09:13:15;;;;;;;;;;;0.60;99.90;;;;;;6214560;23;19904;-71
2022/01/17 09:15:41;;;;;;;;;;;0.70;99.90;;;;;;6215407;23;19975;-71
2022/01/17 09:18:07;;;;;;;;;;;0.60;99.90;;;;;;6216104;23;19906;-70
2022/01/17 09:20:34;;;;;;;;;;;0.70;99.90;;;;;;6216481;23;20082;-70
2022/01/17 09:23:01;;;;;;;;;;;0.80;99.90;;;;;;6216941;23;19974;-70
2022/01/17 09:25:27;;;;;;;;;;;0.90;99.90;;;;;;6218040;23;19900;-69
2022/01/17 09:27:52;;;;;;;;;;;1.00;99.90;;;;;;6215698;23;19979;-71
2022/01/17 09:30:18;;;;;;;;;;;1.00;99.90;;;;;;6217452;23;19907;-71
2022/01/17 09:32:45;;;;;;;;;;;1.00;99.90;;;;;;6220232;23;19904;-71
2022/01/17 09:35:12;;;;;;;;;;;1.00;99.90;;;;;;6219826;23;20313;-73
2022/01/17 09:37:37;;;;;;;;;;;1.20;99.90;;;;;;6225241;23;19907;-71
2022/01/17 09:40:05;;;;;;;;;;;1.50;99.90;;;;;;6227289;23;19912;-72
2022/01/17 09:42:35;;;;;;;;;;;1.80;99.90;;;;;;6230419;23;19934;-71
2022/01/17 09:45:02;;;;;;;;;;;1.90;99.90;;;;;;6229735;23;19907;-70
2022/01/17 09:47:28;;;;;;;;;;;1.90;99.90;;;;;;6229004;23;19887;-71
2022/01/17 09:49:55;;;;;;;;;;;1.90;99.90;;;;;;6230152;23;20000;-72
2022/01/17 09:52:34;;;;;;;;;;;2.10;99.90;;;;;;6232154;23;19904;-71
2022/01/17 09:55:06;;;;;;;;;;;2.20;99.90;;;;;;6230994;23;19947;-71
2022/01/17 09:57:32;;;;;;;;;;;2.40;99.90;;;;;;6235507;23;19900;-70
2022/01/17 09:59:57;;;;;;;;;;;2.50;99.90;;;;;;6231302;23;19978;-71
2022/01/17 10:02:23;;;;;;;;;;;2.50;99.90;;;;;;6234558;23;19927;-71
2022/01/17 10:04:49;;;;;;;;;;;2.60;99.90;;;;;;6233338;23;20334;-71
2022/01/17 10:07:15;;;;;;;;;;;2.80;99.90;;;;;;6226151;23;19907;-71
2022/01/17 10:09:52;;;;;;;;;;;2.90;99.90;;;;;;6221025;23;19911;-73
2022/01/17 10:12:17;;;;;;;;;;;3.00;99.90;;;;;;6218547;23;19983;-72
2022/01/17 10:14:45;;;;;;;;;;;3.20;99.90;;;;;;6218413;23;19900;-71
2022/01/17 10:17:16;;;;;;;;;;;3.30;99.90;;;;;;6216166;23;19910;-73
2022/01/17 10:19:42;;;;;;;;;;;3.40;99.90;;;;;;6215948;23;19904;-72
2022/01/17 10:22:23;;;;;;;;;;;3.40;99.90;;;;;;6217017;23;19911;-73
2022/01/17 10:25:15;;;;;;;;;;;3.50;99.90;;;;;;6217445;23;19907;-72
2022/01/17 10:36:15;;;;;;;;;;;4.10;99.90;;;;;;6217550;23;19907;-72
2022/01/17 10:38:41;;;;;;;;;;;4.20;99.90;;;;;;6218030;23;19979;-72
2022/01/17 10:41:07;;;;;;;;;;;4.30;99.90;;;;;;6218953;23;20237;-73
2022/01/17 10:43:38;;;;;;;;;;;4.30;99.90;;;;;;6226627;23;19991;-72
2022/01/17 10:46:06;;;;;;;;;;;4.40;99.90;;;;;;6224391;23;19900;-72
2022/01/17 10:48:36;;;;;;;;;;;4.50;99.90;;;;;;6226797;23;20070;-73
2022/01/17 10:51:02;;;;;;;;;;;4.70;99.90;;;;;;6230147;23;20284;-72
2022/01/17 10:53:28;;;;;;;;;;;4.80;99.90;;;;;;6230163;23;19904;-73
2022/01/17 10:55:55;;;;;;;;;;;4.80;99.90;;;;;;6228704;23;19899;-72
2022/01/17 10:58:24;;;;;;;;;;;4.80;99.90;;;;;;6225251;23;19904;-72
2022/01/17 11:00:51;;;;;;;;;;;4.90;99.90;;;;;;6224236;23;20219;-73
2022/01/17 11:03:18;;;;;;;;;;;4.80;99.90;;;;;;6221389;23;19900;-72
2022/01/17 11:05:45;;;;;;;;;;;4.80;99.90;;;;;;6217637;23;19899;-72
2022/01/17 11:08:12;;;;;;;;;;;4.80;99.90;;;;;;6214923;23;19907;-72
2022/01/17 11:10:40;;;;;;;;;;;4.80;99.90;;;;;;6217891;23;19947;-72
2022/01/17 11:13:07;;;;;;;;;;;4.90;99.90;;;;;;6213891;23;19904;-73
2022/01/17 11:15:33;;;;;;;;;;;5.00;99.90;;;;;;6215461;23;19900;-73
2022/01/17 11:18:04;;;;;;;;;;;5.10;99.90;;;;;;6217284;23;19979;-72
2022/01/17 11:20:32;;;;;;;;;;;5.20;99.90;;;;;;6217104;23;19900;-72
2022/01/17 11:22:58;;;;;;;;;;;5.30;99.90;;;;;;6217162;23;19907;-72
2022/01/17 11:25:30;;;;;;;;;;;5.40;99.90;;;;;;6215388;23;19900;-72
2022/01/17 11:27:57;;;;;;;;;;;5.50;99.90;;;;;;6215108;23;20218;-72
2022/01/17 11:30:23;;;;;;;;;;;5.50;99.90;;;;;;6216220;23;19943;-73
2022/01/17 11:32:49;;;;;;;;;;;5.60;99.90;;;;;;6211529;23;19904;-73
2022/01/17 11:35:17;;;;;;;;;;;5.50;99.90;;;;;;6213255;23;19900;-72
2022/01/17 11:37:45;;;;;;;;;;;5.70;99.90;;;;;;6212296;23;19975;-72
2022/01/17 11:40:11;;;;;;;;;;;5.70;99.90;;;;;;6212448;23;20367;-74
2022/01/17 11:42:42;;;;;;;;;;;5.70;99.90;;;;;;6212333;23;19900;-73
2022/01/17 11:45:23;;;;;;;;;;;5.80;99.90;;;;;;6214488;23;20259;-73
2022/01/17 11:47:53;;;;;;;;;;;5.90;99.90;;;;;;6212265;23;19957;-73
2022/01/17 11:50:28;;;;;;;;;;;6.00;99.90;;;;;;6212883;23;19907;-74
2022/01/17 11:52:54;;;;;;;;;;;6.00;99.90;;;;;;6211911;23;20239;-73
2022/01/17 11:55:38;;;;;;;;;;;6.00;99.90;;;;;;6213921;23;19982;-73
2022/01/17 11:58:22;;;;;;;;;;;6.00;99.90;;;;;;6213018;23;20176;-72
2022/01/17 12:00:48;;;;;;;;;;;6.20;99.90;;;;;;6210673;23;19900;-74
2022/01/17 12:03:17;;;;;;;;;;;6.40;99.90;;;;;;6213876;23;19978;-73
2022/01/17 12:05:46;;;;;;;;;;;6.50;99.90;;;;;;6213432;23;19906;-74
2022/01/17 12:08:15;;;;;;;;;;;6.30;99.90;;;;;;6213322;23;19975;-74
2022/01/17 12:10:50;;;;;;;;;;;6.40;99.90;;;;;;6211975;23;19914;-74
2022/01/17 12:13:21;;;;;;;;;;;6.60;99.90;;;;;;6212906;23;19982;-73
2022/01/17 12:16:06;;;;;;;;;;;6.50;99.90;;;;;;6213858;23;19986;-73
2022/01/17 12:18:34;;;;;;;;;;;6.60;99.90;;;;;;6213281;23;19979;-73
2022/01/17 12:21:18;;;;;;;;;;;6.80;99.90;;;;;;6212452;23;19900;-73
2022/01/17 12:23:44;;;;;;;;;;;6.90;99.90;;;;;;6212812;23;20312;-74
2022/01/17 12:26:31;;;;;;;;;;;7.00;99.90;;;;;;6213049;23;19931;-73
2022/01/17 12:28:58;;;;;;;;;;;7.00;99.90;;;;;;6212309;23;19900;-74
2022/01/17 12:31:57;;;;;;;;;;;7.00;99.90;;;;;;6208975;23;19920;-74
2022/01/17 12:34:24;;;;;;;;;;;7.00;99.90;;;;;;6161624;23;20266;-74
2022/01/17 12:36:51;;;;;;;;;;;7.00;99.90;;;;;;6211719;23;19904;-74
2022/01/17 12:39:18;;;;;;;;;;;6.90;99.90;;;;;;6214044;23;19899;-73
2022/01/17 12:41:47;;;;;;;;;;;7.00;99.90;;;;;;6214177;23;20014;-74
2022/01/17 12:44:17;;;;;;;;;;;6.90;99.90;;;;;;6216129;23;19900;-74
2022/01/17 12:46:44;;;;;;;;;;;6.90;99.90;;;;;;6214005;23;19951;-73
2022/01/17 12:49:10;;;;;;;;;;;7.00;99.90;;;;;;6213937;23;19987;-74
2022/01/17 12:51:39;;;;;;;;;;;7.20;99.90;;;;;;6216888;23;19949;-74
2022/01/17 12:54:08;;;;;;;;;;;7.30;99.90;;;;;;6217605;23;19904;-74
2022/01/17 12:56:34;;;;;;;;;;;7.50;99.90;;;;;;6218267;23;19900;-75
2022/01/17 12:59:01;;;;;;;;;;;7.50;99.90;;;;;;6214402;23;20328;-73
2022/01/17 13:01:27;;;;;;;;;;;7.60;99.90;;;;;;6217155;23;20275;-73
2022/01/17 13:04:01;;;;;;;;;;;7.70;99.90;;;;;;6216621;23;19900;-74
2022/01/17 13:06:27;;;;;;;;;;;7.90;99.90;;;;;;6217563;23;19900;-74
2022/01/17 13:08:53;;;;;;;;;;;8.00;99.90;;;;;;6218544;23;20327;-73
2022/01/17 13:11:22;;;;;;;;;;;8.00;99.90;;;;;;6217159;23;19904;-73
2022/01/17 13:13:52;;;;;;;;;;;8.10;99.90;;;;;;6214571;23;19987;-74
2022/01/17 13:16:20;;;;;;;;;;;8.10;99.90;;;;;;6216963;23;19904;-74
2022/01/17 13:18:47;;;;;;;;;;;8.00;99.90;;;;;;6216512;23;19900;-73
2022/01/17 13:21:13;;;;;;;;;;;8.00;99.90;;;;;;6215387;23;19978;-73
2022/01/17 13:23:45;;;;;;;;;;;7.90;99.90;;;;;;6215001;23;20331;-73
2022/01/17 13:26:11;;;;;;;;;;;8.00;99.90;;;;;;6217107;23;19945;-73
2022/01/17 13:28:37;;;;;;;;;;;8.00;99.90;;;;;;6216227;23;19981;-73
2022/01/17 13:31:14;;;;;;;;;;;7.90;99.90;;;;;;6218031;23;19904;-73
2022/01/17 13:33:40;;;;;;;;;;;7.90;99.90;;;;;;6217261;23;19946;-72
2022/01/17 13:36:05;;;;;;;;;;;8.00;99.90;;;;;;6215954;23;19900;-72
2022/01/17 13:38:31;;;;;;;;;;;8.10;99.90;;;;;;6217620;23;19915;-73
2022/01/17 13:41:01;;;;;;;;;;;8.20;99.90;;;;;;6215918;23;19985;-72
2022/01/17 13:43:27;;;;;;;;;;;8.30;99.90;;;;;;6216283;23;20311;-72
2022/01/17 13:45:54;;;;;;;;;;;8.30;99.90;;;;;;6217094;23;19908;-71
2022/01/17 13:48:23;;;;;;;;;;;8.30;99.90;;;;;;6215929;23;19942;-72
2022/01/17 13:51:02;;;;;;;;;;;8.40;99.90;;;;;;6215667;23;19998;-73
2022/01/17 13:53:29;;;;;;;;;;;8.50;99.90;;;;;;6214276;23;19910;-72
2022/01/17 13:55:56;;;;;;;;;;;8.50;99.90;;;;;;6216193;23;19900;-72
2022/01/17 13:58:25;;;;;;;;;;;8.60;99.90;;;;;;6216285;23;19913;-73
2022/01/17 14:00:52;;;;;;;;;;;8.60;99.90;;;;;;6214322;23;19915;-74
2022/01/17 14:03:21;;;;;;;;;;;8.70;99.90;;;;;;6214572;23;19908;-73
2022/01/17 14:05:49;;;;;;;;;;;8.70;99.90;;;;;;6215822;23;19950;-72
2022/01/17 14:08:16;;;;;;;;;;;8.70;99.90;;;;;;6211917;23;20253;-73
2022/01/17 14:10:49;;;;;;;;;;;8.70;99.90;;;;;;6214827;23;20327;-72
2022/01/17 14:13:19;;;;;;;;;;;8.80;99.90;;;;;;6212312;23;19978;-73
2022/01/17 14:15:45;;;;;;;;;;;8.80;99.90;;;;;;6215869;23;19900;-73
2022/01/17 14:18:11;;;;;;;;;;;8.80;99.90;;;;;;6214949;23;20291;-72
2022/01/17 14:20:48;;;;;;;;;;;8.90;99.90;;;;;;6214296;23;19944;-73
2022/01/17 14:23:24;;;;;;;;;;;8.90;99.90;;;;;;6212581;23;19899;-72
2022/01/17 14:25:50;;;;;;;;;;;8.90;99.90;;;;;;6215580;23;19900;-74
2022/01/17 14:28:15;;;;;;;;;;;8.90;99.90;;;;;;6213916;23;19900;-72
2022/01/17 14:30:42;;;;;;;;;;;8.80;99.90;;;;;;6216355;23;19903;-73
2022/01/17 14:33:07;;;;;;;;;;;8.60;99.90;;;;;;6213653;23;19950;-72
2022/01/17 14:35:33;;;;;;;;;;;8.50;99.90;;;;;;6216585;23;19903;-72
2022/01/17 14:37:59;;;;;;;;;;;8.30;99.90;;;;;;6217461;23;20228;-75
2022/01/17 14:40:30;;;;;;;;;;;8.20;99.90;;;;;;6216857;23;19915;-71
2022/01/17 14:43:08;;;;;;;;;;;8.20;99.90;;;;;;6217379;23;19930;-73
2022/01/17 14:45:33;;;;;;;;;;;8.10;99.90;;;;;;6222088;23;19971;-71
2022/01/17 14:48:00;;;;;;;;;;;8.10;99.90;;;;;;6214891;23;20240;-70
2022/01/17 14:50:27;;;;;;;;;;;8.10;99.90;;;;;;6214333;23;19911;-69
2022/01/17 14:52:54;;;;;;;;;;;8.00;99.90;;;;;;6213072;23;19904;-69
2022/01/17 15:00:49;;;;;;;;;;;8.10;99.90;;;;;;6217553;23;19914;-72
2022/01/17 15:03:18;;;;;;;;;;;8.20;99.90;;;;;;6221026;23;19900;-70
2022/01/17 15:05:45;;;;;;;;;;;8.30;99.90;;;;;;6222357;23;19903;-71